»·PEaware :: N413PT KLGB-KLAS

N413PT :: KLGB-KLAS

FLIGHT INFORMATION

Flight Status: Arrived
Operator: Privately registered:
United States
More flights under this callsign
Pilot: Mark 1 Aviation (4414)
Aircraft: CIRRUS SR-22
(SR22)
More flights by this aircraft type
Origin: KLGB Long Beach
United States
Destination: KLAS McCarran Intl
United States
More flights between these airports :: More routes between these airports
Route: +SLI V21 PDZ APLES V394 DAG V587 BLD
File this flight plan on PilotEdge
Remarks:
Altitude:
(Current/Filed)
5,000ft
Speed:
(Current/Filed)
0kts
Departed: 14-Aug-14 08:33 PM
Arrived: 14-Aug-14 10:07 PM
Distance/Time
Traveled:
200nm/1:34
Distance/Time
To Go:
Arrived

Flight Plot

Page will automatically refresh every two minutes.

Flight plan parsing failed; only flown route is shown


Map Options




Map Legend


Flown Route
Filed Route
Departure Airport
Arrival Airport
Navaid (VOR, NDB)
Fix

Horizontal Profiles

Position Reports

Time Latitude Longitude Heading Altitude Ground
Speed
14-Aug-14 20:02 33.821365 -118.159302 359 62ft 0kts
14-Aug-14 20:03 33.821365 -118.159302 359 62ft 0kts
14-Aug-14 20:04 33.821365 -118.159302 359 62ft 0kts
14-Aug-14 20:05 33.821365 -118.159302 359 62ft 0kts
14-Aug-14 20:06 33.821365 -118.159302 359 62ft 0kts
14-Aug-14 20:07 33.821365 -118.159302 359 62ft 0kts
14-Aug-14 20:08 33.821365 -118.159302 359 62ft 0kts
14-Aug-14 20:09 33.821365 -118.159302 359 62ft 0kts
14-Aug-14 20:10 33.821365 -118.159302 359 62ft 0kts
14-Aug-14 20:11 33.821365 -118.159302 359 62ft 0kts
14-Aug-14 20:12 33.821365 -118.159302 359 62ft 0kts
14-Aug-14 20:13 33.821365 -118.159302 359 62ft 0kts
14-Aug-14 20:14 33.821365 -118.159302 359 62ft 0kts
14-Aug-14 20:15 33.821365 -118.159302 359 62ft 0kts
14-Aug-14 20:16 33.821365 -118.159302 359 62ft 0kts
14-Aug-14 20:17 33.821365 -118.159302 359 62ft 0kts
14-Aug-14 20:18 33.821365 -118.159302 359 62ft 0kts
14-Aug-14 20:19 33.821365 -118.159302 359 62ft 0kts
14-Aug-14 20:20 33.821365 -118.159302 359 62ft 0kts
14-Aug-14 20:21 33.821365 -118.159302 359 62ft 0kts
14-Aug-14 20:22 33.821440 -118.159275 35 62ft 1kts
14-Aug-14 20:23 33.821174 -118.158209 98 62ft 5kts
14-Aug-14 20:24 33.820560 -118.156616 122 62ft 0kts
14-Aug-14 20:25 33.820487 -118.156488 131 62ft 0kts
14-Aug-14 20:26 33.820487 -118.156488 131 62ft 0kts
14-Aug-14 20:27 33.818811 -118.154488 140 62ft 20kts
14-Aug-14 20:28 33.815556 -118.150543 137 62ft 16kts
14-Aug-14 20:29 33.814528 -118.149273 132 62ft 0kts
14-Aug-14 20:30 33.814528 -118.149273 132 62ft 0kts
14-Aug-14 20:31 33.813840 -118.149518 269 62ft 0kts
14-Aug-14 20:32 33.813919 -118.158940 270 228ft 94kts
14-Aug-14 20:33 33.800044 -118.185142 212 1672ft 102kts
14-Aug-14 20:34 33.776828 -118.203979 213 2998ft 103kts
14-Aug-14 20:35 33.751843 -118.221363 189 4195ft 108kts
14-Aug-14 20:36 33.728689 -118.206353 85 5268ft 114kts
14-Aug-14 20:37 33.740901 -118.171083 68 6297ft 115kts
14-Aug-14 20:38 33.753565 -118.134674 64 7076ft 132kts
14-Aug-14 20:39 33.771804 -118.085389 64 7072ft 173kts
14-Aug-14 20:40 33.789978 -118.028841 71 6969ft 186kts
14-Aug-14 20:41 33.805664 -117.968091 71 6970ft 182kts
14-Aug-14 20:42 33.820325 -117.911414 71 7752ft 140kts
14-Aug-14 20:43 33.829561 -117.876575 71 8575ft 133kts
14-Aug-14 20:44 33.840688 -117.833736 71 9540ft 120kts
14-Aug-14 20:45 33.850909 -117.794030 71 10440ft 121kts
14-Aug-14 20:46 33.860933 -117.755064 71 11275ft 122kts
14-Aug-14 20:47 33.871391 -117.714313 71 12097ft 124kts
14-Aug-14 20:48 33.881582 -117.674534 71 12841ft 125kts
14-Aug-14 20:49 33.891295 -117.636633 72 13004ft 151kts
14-Aug-14 20:50 33.904849 -117.583482 72 13001ft 166kts
14-Aug-14 20:51 33.921194 -117.529083 38 13000ft 169kts
14-Aug-14 20:52 33.964632 -117.502306 25 13000ft 170kts
14-Aug-14 20:53 34.008441 -117.476029 25 12999ft 171kts
14-Aug-14 20:54 34.045381 -117.453841 25 12999ft 171kts
14-Aug-14 20:55 34.089351 -117.427401 25 12999ft 170kts
14-Aug-14 20:56 34.133059 -117.401088 25 12999ft 169kts
14-Aug-14 20:57 34.176591 -117.374854 25 12999ft 169kts
14-Aug-14 20:58 34.220008 -117.348659 25 12999ft 169kts
14-Aug-14 20:59 34.255162 -117.327427 25 12999ft 169kts
14-Aug-14 21:00 34.298451 -117.301254 25 12999ft 170kts
14-Aug-14 21:01 34.342342 -117.274683 25 12999ft 170kts
14-Aug-14 21:02 34.387466 -117.247328 25 12999ft 170kts
14-Aug-14 21:03 34.426939 -117.223385 25 13023ft 169kts
14-Aug-14 21:04 34.473150 -117.195250 25 13029ft 170kts
14-Aug-14 21:05 34.511134 -117.172193 25 13029ft 170kts
14-Aug-14 21:06 34.555230 -117.140223 47 13031ft 170kts
14-Aug-14 21:07 34.583207 -117.101718 47 13030ft 171kts
14-Aug-14 21:08 34.617886 -117.054165 47 13030ft 171kts
14-Aug-14 21:09 34.645741 -117.015909 47 13030ft 171kts
14-Aug-14 21:10 34.679818 -116.969043 47 13030ft 171kts
14-Aug-14 21:11 34.708700 -116.929270 47 13030ft 171kts
14-Aug-14 21:12 34.742970 -116.882419 47 13029ft 171kts
14-Aug-14 21:13 34.771017 -116.843910 48 13029ft 171kts
14-Aug-14 21:14 34.805122 -116.796766 48 13029ft 171kts
14-Aug-14 21:15 34.833660 -116.757281 48 13029ft 171kts
14-Aug-14 21:16 34.867343 -116.710610 48 13029ft 171kts
14-Aug-14 21:17 34.901240 -116.663570 48 13029ft 171kts
14-Aug-14 21:18 34.929252 -116.624659 48 13029ft 171kts
14-Aug-14 21:19 34.962695 -116.577967 53 13026ft 171kts
14-Aug-14 21:20 34.983166 -116.531870 60 13029ft 171kts
14-Aug-14 21:21 35.007948 -116.476070 60 13029ft 171kts
14-Aug-14 21:22 35.028541 -116.429666 60 13029ft 171kts
14-Aug-14 21:23 35.053802 -116.372631 60 13029ft 171kts
14-Aug-14 21:24 35.074133 -116.326681 60 13029ft 170kts
14-Aug-14 21:25 35.098782 -116.270873 60 13029ft 170kts
14-Aug-14 21:26 35.118995 -116.225078 60 13029ft 170kts
14-Aug-14 21:27 35.139892 -116.177669 60 13029ft 170kts
14-Aug-14 21:28 35.164539 -116.121639 60 13029ft 170kts
14-Aug-14 21:29 35.184513 -116.076160 60 13059ft 169kts
14-Aug-14 21:30 35.208906 -116.020540 60 13059ft 170kts
14-Aug-14 21:31 35.229651 -115.973165 60 13059ft 170kts
14-Aug-14 21:32 35.254183 -115.917052 60 13059ft 170kts
14-Aug-14 21:33 35.274370 -115.871506 60 13059ft 170kts
14-Aug-14 21:34 35.298840 -115.815553 61 13059ft 170kts
14-Aug-14 21:35 35.322786 -115.770900 46 13060ft 170kts
14-Aug-14 21:36 35.356709 -115.725893 46 13059ft 170kts
14-Aug-14 21:37 35.386465 -115.686234 46 13059ft 170kts
14-Aug-14 21:38 35.421375 -115.639639 46 13059ft 170kts
14-Aug-14 21:39 35.451379 -115.599557 46 12651ft 187kts
14-Aug-14 21:40 35.490727 -115.546891 46 12058ft 189kts
14-Aug-14 21:41 35.522405 -115.504392 46 12058ft 177kts
14-Aug-14 21:42 35.557109 -115.457841 46 12059ft 173kts
14-Aug-14 21:43 35.585904 -115.419165 46 12060ft 173kts
14-Aug-14 21:44 35.621830 -115.370837 46 12060ft 172kts
14-Aug-14 21:45 35.651901 -115.330338 46 12060ft 172kts
14-Aug-14 21:46 35.687269 -115.282340 45 12060ft 172kts
14-Aug-14 21:47 35.716434 -115.243205 46 12060ft 172kts
14-Aug-14 21:48 35.751805 -115.195388 46 12060ft 172kts
14-Aug-14 21:49 35.780827 -115.156096 46 12060ft 172kts
14-Aug-14 21:50 35.814981 -115.109785 46 12011ft 176kts
14-Aug-14 21:51 35.846700 -115.066709 46 11230ft 199kts
14-Aug-14 21:52 35.887866 -115.010663 46 10253ft 204kts
14-Aug-14 21:53 35.928242 -114.955700 46 9277ft 205kts
14-Aug-14 21:54 35.962269 -114.909305 46 8558ft 202kts
14-Aug-14 21:55 36.008191 -114.868685 47 8063ft 188kts
14-Aug-14 21:56 36.038976 -114.825248 47 7637ft 195kts
14-Aug-14 21:57 36.078904 -114.768845 47 6765ft 201kts
14-Aug-14 21:58 36.108851 -114.790054 245 5902ft 187kts
14-Aug-14 21:59 36.084597 -114.830926 233 5088ft 147kts
14-Aug-14 22:00 36.073751 -114.870405 269 5056ft 136kts
14-Aug-14 22:01 36.073522 -114.920160 270 4961ft 139kts
14-Aug-14 22:02 36.073560 -114.974788 270 4453ft 158kts
14-Aug-14 22:03 36.073611 -115.024185 270 3748ft 150kts
14-Aug-14 22:04 36.073628 -115.074778 270 2978ft 129kts
14-Aug-14 22:05 36.073662 -115.116904 270 2348ft 95kts
14-Aug-14 22:06 36.073704 -115.139558 269 2143ft 0kts
14-Aug-14 22:07 36.074396 -115.145170 293 2143ft 26kts
14-Aug-14 22:08 36.075178 -115.148482 266 2143ft 2kts

Navigation Log

Ident Type
Flight plan parsing failed, navigation log unavailable